createdAt,value
2023-04-12T00:00:07.502Z,73.10
2023-04-12T00:00:16.933Z,73.10
2023-04-12T00:00:26.338Z,73.20
2023-04-12T00:00:45.148Z,73.10
2023-04-12T00:00:54.611Z,73.10
2023-04-12T00:01:03.963Z,73.20
2023-04-12T00:01:13.401Z,73.20
2023-04-12T00:01:22.808Z,73.10
2023-04-12T00:01:32.202Z,73.10
2023-04-12T00:01:51.017Z,73.10
2023-04-12T00:02:00.440Z,73.20
2023-04-12T00:02:09.879Z,73.10
2023-04-12T00:02:19.333Z,73.10
2023-04-12T00:02:28.713Z,73.10
2023-04-12T00:02:38.332Z,73.20
2023-04-12T00:02:56.980Z,73.20
2023-04-12T00:03:06.451Z,73.20
2023-04-12T00:03:15.902Z,73.20
2023-04-12T00:03:25.443Z,73.20
2023-04-12T00:03:34.923Z,73.20
2023-04-12T00:03:44.239Z,73.10
2023-04-12T00:04:03.297Z,73.10
2023-04-12T00:04:12.310Z,73.20
2023-04-12T00:04:21.715Z,73.10
2023-04-12T00:04:31.112Z,73.10
2023-04-12T00:04:40.537Z,73.20
2023-04-12T00:04:49.865Z,73.10
2023-04-12T00:05:08.620Z,73.10
2023-04-12T00:05:18.039Z,73.20
2023-04-12T00:05:27.517Z,73.10
2023-04-12T00:05:36.771Z,73.10
2023-04-12T00:05:46.190Z,73.20
2023-04-12T00:05:55.589Z,73.10
2023-04-12T00:06:14.409Z,73.20
2023-04-12T00:06:23.804Z,73.10
2023-04-12T00:06:33.237Z,73.10
2023-04-12T00:06:42.631Z,73.20
2023-04-12T00:06:52.005Z,73.20
2023-04-12T00:07:01.462Z,73.20
2023-04-12T00:07:20.202Z,73.20
2023-04-12T00:07:29.617Z,73.20
2023-04-12T00:07:39.013Z,73.10
2023-04-12T00:07:48.421Z,73.10
2023-04-12T00:07:57.819Z,73.20
2023-04-12T00:08:07.214Z,73.20
2023-04-12T00:08:26.025Z,73.20
2023-04-12T00:08:35.606Z,73.20
2023-04-12T00:08:44.811Z,73.20
2023-04-12T00:08:54.202Z,73.20
2023-04-12T00:09:03.641Z,73.20
2023-04-12T00:09:12.977Z,73.30
2023-04-12T00:09:31.808Z,73.30
2023-04-12T00:09:41.206Z,73.30
2023-04-12T00:09:50.587Z,73.30
2023-04-12T00:09:59.980Z,73.10
2023-04-12T00:10:09.465Z,73.30
2023-04-12T00:10:18.966Z,73.30
2023-04-12T00:10:37.926Z,73.20
2023-04-12T00:10:47.314Z,73.20
2023-04-12T00:10:56.740Z,73.20
2023-04-12T00:11:06.140Z,73.30
2023-04-12T00:11:15.528Z,73.20
2023-04-12T00:11:24.922Z,73.30
2023-04-12T00:11:43.712Z,73.30
2023-04-12T00:11:53.083Z,73.30
2023-04-12T00:12:02.508Z,73.30
2023-04-12T00:12:11.885Z,73.30
2023-04-12T00:12:21.293Z,73.30
2023-04-12T00:12:30.669Z,73.30
2023-04-12T00:12:49.493Z,73.50
2023-04-12T00:12:58.907Z,73.50
2023-04-12T00:13:08.292Z,73.50
2023-04-12T00:13:17.675Z,73.50
2023-04-12T00:13:27.074Z,73.50
2023-04-12T00:13:36.478Z,73.60
2023-04-12T00:13:55.522Z,73.60
2023-04-12T00:14:04.674Z,73.60
2023-04-12T00:14:14.067Z,73.60
2023-04-12T00:14:23.503Z,73.60
2023-04-12T00:14:32.899Z,73.60
2023-04-12T00:14:42.273Z,73.70
2023-04-12T00:15:01.060Z,73.60
2023-04-12T00:15:10.466Z,73.70
2023-04-12T00:15:19.859Z,73.70
2023-04-12T00:15:29.248Z,73.70
2023-04-12T00:15:38.685Z,73.70
2023-04-12T00:15:48.054Z,73.70
2023-04-12T00:16:06.893Z,73.70
2023-04-12T00:16:16.331Z,73.70
2023-04-12T00:16:25.697Z,73.70
2023-04-12T00:16:35.052Z,73.70
2023-04-12T00:16:44.443Z,73.70
2023-04-12T00:16:53.817Z,73.80
2023-04-12T00:17:12.612Z,73.80
2023-04-12T00:17:21.996Z,73.80
2023-04-12T00:17:31.487Z,73.80
2023-04-12T00:17:40.863Z,73.80
2023-04-12T00:17:50.294Z,73.80
2023-04-12T00:17:59.668Z,73.80
2023-04-12T00:18:18.427Z,73.80
2023-04-12T00:18:27.820Z,73.80
2023-04-12T00:18:37.191Z,73.70
2023-04-12T00:18:46.607Z,73.80
2023-04-12T00:18:56.011Z,73.70
2023-04-12T00:19:05.401Z,73.80
2023-04-12T00:19:24.182Z,73.80
2023-04-12T00:19:33.595Z,73.80
2023-04-12T00:19:42.994Z,73.90
2023-04-12T00:19:52.387Z,73.80
2023-04-12T00:20:01.797Z,73.90
2023-04-12T00:20:11.199Z,73.90
2023-04-12T00:20:30.005Z,74.00
2023-04-12T00:20:39.418Z,74.00
2023-04-12T00:20:48.798Z,74.00
2023-04-12T00:20:58.219Z,74.00
2023-04-12T00:21:07.641Z,74.00
2023-04-12T00:21:17.031Z,74.00
2023-04-12T00:21:35.810Z,74.00
2023-04-12T00:21:45.227Z,74.00
2023-04-12T00:21:54.625Z,74.00
2023-04-12T00:22:04.015Z,74.00
2023-04-12T00:22:13.406Z,74.10
2023-04-12T00:22:22.800Z,74.10
2023-04-12T00:22:41.700Z,74.10
2023-04-12T00:22:51.052Z,74.10
2023-04-12T00:23:00.476Z,74.10
2023-04-12T00:23:09.891Z,74.00
2023-04-12T00:23:19.329Z,74.10
2023-04-12T00:23:28.720Z,74.10
2023-04-12T00:23:47.525Z,74.20
2023-04-12T00:23:57.229Z,74.20
2023-04-12T00:24:06.291Z,74.20
2023-04-12T00:24:15.703Z,74.20
2023-04-12T00:24:25.082Z,74.30
2023-04-12T00:24:34.517Z,74.30
2023-04-12T00:24:53.324Z,74.30
2023-04-12T00:25:02.749Z,74.30
2023-04-12T00:25:12.170Z,74.40
2023-04-12T00:25:21.549Z,74.30
2023-04-12T00:25:30.974Z,74.30
2023-04-12T00:25:40.370Z,74.30
2023-04-12T00:25:59.211Z,74.30
2023-04-12T00:26:08.626Z,74.30
2023-04-12T00:26:18.010Z,74.30
2023-04-12T00:26:27.417Z,74.30
2023-04-12T00:26:36.810Z,74.30
2023-04-12T00:26:46.208Z,74.30
2023-04-12T00:27:05.033Z,74.40
2023-04-12T00:27:14.433Z,74.30
2023-04-12T00:27:23.815Z,74.40
2023-04-12T00:27:33.209Z,74.40
2023-04-12T00:27:42.633Z,74.30
2023-04-12T00:27:52.005Z,74.40
2023-04-12T00:28:10.867Z,74.30
2023-04-12T00:28:20.255Z,74.30
2023-04-12T00:28:29.638Z,74.30
2023-04-12T00:28:39.022Z,74.40
2023-04-12T00:28:48.439Z,74.30
2023-04-12T00:28:57.828Z,74.40
2023-04-12T00:29:16.654Z,74.40
2023-04-12T00:29:26.054Z,74.40
2023-04-12T00:29:35.446Z,74.40
2023-04-12T00:29:44.848Z,74.40
2023-04-12T00:29:54.231Z,74.40
2023-04-12T00:30:03.634Z,74.40
2023-04-12T00:30:22.412Z,74.40
2023-04-12T00:30:31.807Z,74.40
2023-04-12T00:30:41.252Z,74.40
2023-04-12T00:30:50.624Z,74.40
2023-04-12T00:31:00.028Z,74.40
2023-04-12T00:31:09.434Z,74.40
2023-04-12T00:31:28.240Z,74.40
2023-04-12T00:31:37.613Z,74.40
2023-04-12T00:31:47.006Z,74.30
2023-04-12T00:31:56.359Z,74.30
2023-04-12T00:32:05.841Z,74.30
2023-04-12T00:32:15.170Z,74.30
2023-04-12T00:32:33.982Z,74.30
2023-04-12T00:32:43.366Z,74.40
2023-04-12T00:32:52.801Z,74.30
2023-04-12T00:33:02.274Z,74.40
2023-04-12T00:33:11.595Z,74.40
2023-04-12T00:33:20.988Z,74.40
2023-04-12T00:33:39.782Z,74.40
2023-04-12T00:33:49.173Z,74.50
2023-04-12T00:33:59.000Z,74.50
2023-04-12T00:34:07.979Z,74.50
2023-04-12T00:34:17.369Z,74.60
2023-04-12T00:34:26.798Z,74.60
2023-04-12T00:34:45.612Z,74.60
2023-04-12T00:34:55.003Z,74.60
2023-04-12T00:35:04.414Z,74.60
2023-04-12T00:35:13.806Z,74.60
2023-04-12T00:35:23.189Z,74.70
2023-04-12T00:35:32.616Z,74.70
2023-04-12T00:35:51.439Z,74.60
2023-04-12T00:36:00.833Z,74.60
2023-04-12T00:36:10.242Z,74.60
2023-04-12T00:36:19.624Z,74.60
2023-04-12T00:36:28.980Z,74.60
2023-04-12T00:36:38.373Z,74.60
2023-04-12T00:36:57.187Z,74.70
2023-04-12T00:37:06.579Z,74.70
2023-04-12T00:37:15.958Z,74.70
2023-04-12T00:37:25.367Z,74.70
2023-04-12T00:37:34.757Z,74.70
2023-04-12T00:37:44.144Z,74.70
2023-04-12T00:38:02.972Z,74.80
2023-04-12T00:38:12.373Z,74.80
2023-04-12T00:38:21.763Z,74.80
2023-04-12T00:38:31.166Z,74.80
2023-04-12T00:38:40.595Z,74.80
2023-04-12T00:38:50.001Z,74.80
2023-04-12T00:39:08.807Z,74.80
2023-04-12T00:39:18.203Z,74.90
2023-04-12T00:39:27.606Z,74.90
2023-04-12T00:39:37.005Z,74.90
2023-04-12T00:39:46.425Z,74.90
2023-04-12T00:39:55.807Z,74.90
2023-04-12T00:40:14.606Z,75.00
2023-04-12T00:40:24.011Z,74.90
2023-04-12T00:40:33.434Z,75.00
2023-04-12T00:40:42.810Z,75.00
2023-04-12T00:40:52.177Z,74.90
2023-04-12T00:41:01.652Z,75.00
2023-04-12T00:41:20.430Z,74.90
2023-04-12T00:41:29.835Z,75.00
2023-04-12T00:41:39.197Z,75.00
2023-04-12T00:41:48.603Z,75.00
2023-04-12T00:41:58.000Z,75.00
2023-04-12T00:42:07.454Z,75.00
2023-04-12T00:42:26.250Z,75.00
2023-04-12T00:42:35.649Z,75.00
2023-04-12T00:42:45.033Z,75.00
2023-04-12T00:42:57.117Z,74.90
2023-04-12T00:43:06.855Z,74.90
2023-04-12T00:43:16.254Z,74.90
2023-04-12T00:43:35.046Z,74.80
2023-04-12T00:43:44.425Z,74.80
2023-04-12T00:43:53.868Z,74.80
2023-04-12T00:44:03.221Z,74.80
2023-04-12T00:44:12.650Z,74.80
2023-04-12T00:44:22.041Z,74.80
2023-04-12T00:44:40.880Z,74.70
2023-04-12T00:44:50.291Z,74.80
2023-04-12T00:44:59.687Z,74.70
2023-04-12T00:45:09.078Z,74.70
2023-04-12T00:45:18.483Z,74.80
2023-04-12T00:45:27.878Z,74.80
2023-04-12T00:45:46.690Z,74.80
2023-04-12T00:45:56.098Z,74.80
2023-04-12T00:46:05.472Z,74.90
2023-04-12T00:46:14.918Z,75.00
2023-04-12T00:46:24.315Z,75.00
2023-04-12T00:46:33.704Z,75.00
2023-04-12T00:46:52.496Z,75.10
2023-04-12T00:47:01.979Z,75.10
2023-04-12T00:47:11.261Z,75.10
2023-04-12T00:47:20.695Z,75.20
2023-04-12T00:47:30.034Z,75.20
2023-04-12T00:47:39.506Z,75.30
2023-04-12T00:47:58.187Z,75.30
2023-04-12T00:48:07.612Z,75.20
2023-04-12T00:48:17.006Z,75.30
2023-04-12T00:48:26.388Z,75.40
2023-04-12T00:48:35.767Z,75.40
2023-04-12T00:48:45.167Z,75.40
2023-04-12T00:49:03.993Z,75.50
2023-04-12T00:49:13.384Z,75.50
2023-04-12T00:49:22.764Z,75.50
2023-04-12T00:49:32.174Z,75.50
2023-04-12T00:49:41.564Z,75.60
2023-04-12T00:49:50.929Z,75.60
2023-04-12T00:50:09.750Z,75.60
2023-04-12T00:50:19.159Z,75.70
2023-04-12T00:50:28.550Z,75.70
2023-04-12T00:50:37.942Z,75.70
2023-04-12T00:50:47.356Z,75.70
2023-04-12T00:50:56.766Z,75.70
2023-04-12T00:51:15.551Z,75.80
2023-04-12T00:51:24.935Z,75.70
2023-04-12T00:51:34.337Z,75.70
2023-04-12T00:51:43.733Z,75.80
2023-04-12T00:51:53.201Z,75.80
2023-04-12T00:52:02.593Z,75.80
2023-04-12T00:52:21.510Z,75.80
2023-04-12T00:52:30.895Z,75.80
2023-04-12T00:52:40.298Z,75.80
2023-04-12T00:52:49.815Z,75.90
2023-04-12T00:52:59.240Z,75.90
2023-04-12T00:53:08.621Z,75.90
2023-04-12T00:53:27.419Z,75.90
2023-04-12T00:53:36.804Z,75.90
2023-04-12T00:53:46.199Z,76.00
2023-04-12T00:53:55.851Z,76.00
2023-04-12T00:54:04.976Z,76.00
2023-04-12T00:54:14.356Z,76.00
2023-04-12T00:54:33.196Z,76.20
2023-04-12T00:54:42.572Z,76.20
2023-04-12T00:54:51.939Z,76.20
2023-04-12T00:55:01.327Z,76.30
2023-04-12T00:55:10.759Z,76.30
2023-04-12T00:55:20.181Z,76.30
2023-04-12T00:55:38.897Z,76.30
2023-04-12T00:55:48.285Z,76.30
2023-04-12T00:55:57.681Z,76.30
2023-04-12T00:56:07.107Z,76.30
2023-04-12T00:56:16.506Z,76.30
2023-04-12T00:56:25.899Z,76.30
2023-04-12T00:56:44.683Z,76.30
2023-04-12T00:56:54.076Z,76.30
2023-04-12T00:57:03.554Z,76.30
2023-04-12T00:57:12.939Z,76.30
2023-04-12T00:57:22.397Z,76.30
2023-04-12T00:57:31.730Z,76.30
2023-04-12T00:57:50.582Z,76.40
2023-04-12T00:58:00.006Z,76.40
2023-04-12T00:58:09.390Z,76.40
2023-04-12T00:58:18.774Z,76.40
2023-04-12T00:58:28.174Z,76.40
2023-04-12T00:58:37.560Z,76.40
2023-04-12T00:58:56.366Z,76.40
2023-04-12T00:59:05.758Z,76.40
2023-04-12T00:59:15.180Z,76.50
2023-04-12T00:59:24.573Z,76.50
2023-04-12T00:59:33.971Z,76.50
2023-04-12T00:59:43.380Z,76.50
2023-04-12T01:00:02.201Z,76.50
2023-04-12T01:00:11.595Z,76.50
2023-04-12T01:00:21.010Z,76.50
2023-04-12T01:00:30.429Z,76.50
2023-04-12T01:00:39.840Z,76.50
2023-04-12T01:00:49.214Z,76.50
2023-04-12T01:01:08.049Z,76.50
2023-04-12T01:01:17.499Z,76.40
2023-04-12T01:01:26.807Z,76.40
2023-04-12T01:01:36.173Z,76.40
2023-04-12T01:01:45.633Z,76.40
2023-04-12T01:01:55.023Z,76.30
2023-04-12T01:02:13.832Z,76.30
2023-04-12T01:02:23.340Z,76.30
2023-04-12T01:02:32.759Z,76.30
2023-04-12T01:02:42.144Z,76.20
2023-04-12T01:02:51.625Z,76.30
2023-04-12T01:03:01.029Z,76.30
2023-04-12T01:03:19.788Z,76.40
2023-04-12T01:03:29.139Z,76.40
2023-04-12T01:03:38.589Z,76.40
2023-04-12T01:03:47.860Z,76.30
2023-04-12T01:03:57.417Z,76.30
2023-04-12T01:04:06.603Z,76.30
2023-04-12T01:04:25.385Z,76.20
2023-04-12T01:04:34.785Z,76.20
2023-04-12T01:04:44.240Z,76.20
2023-04-12T01:04:53.638Z,76.20
2023-04-12T01:05:03.086Z,76.20
2023-04-12T01:05:12.429Z,76.20
2023-04-12T01:05:31.225Z,76.20
2023-04-12T01:05:40.607Z,76.20
2023-04-12T01:05:50.006Z,76.20
2023-04-12T01:05:59.401Z,76.20
2023-04-12T01:06:08.780Z,76.30
2023-04-12T01:06:18.173Z,76.20
2023-04-12T01:06:36.932Z,76.30
2023-04-12T01:06:46.302Z,76.20
2023-04-12T01:06:55.682Z,76.20
2023-04-12T01:07:05.071Z,76.20
2023-04-12T01:07:14.468Z,76.20
2023-04-12T01:07:23.880Z,76.20
2023-04-12T01:07:42.698Z,76.20
2023-04-12T01:07:52.120Z,76.30
2023-04-12T01:08:01.561Z,76.30
2023-04-12T01:08:10.946Z,76.30
2023-04-12T01:08:20.410Z,76.30
2023-04-12T01:08:29.818Z,76.20
2023-04-12T01:08:48.630Z,76.20
2023-04-12T01:08:58.024Z,76.20
2023-04-12T01:09:07.427Z,76.20
2023-04-12T01:09:16.849Z,76.10
2023-04-12T01:09:26.234Z,76.20
2023-04-12T01:09:35.630Z,76.10
2023-04-12T01:09:54.420Z,76.00
2023-04-12T01:10:03.813Z,76.00
2023-04-12T01:10:13.206Z,76.00
2023-04-12T01:10:22.592Z,76.00
2023-04-12T01:10:31.992Z,76.00
2023-04-12T01:10:41.425Z,76.00
2023-04-12T01:11:00.181Z,75.90
2023-04-12T01:11:09.569Z,75.90
2023-04-12T01:11:18.964Z,75.90
2023-04-12T01:11:28.346Z,75.90
2023-04-12T01:11:37.752Z,75.90
2023-04-12T01:11:47.121Z,75.90
2023-04-12T01:12:05.925Z,75.80
2023-04-12T01:12:15.306Z,75.90
2023-04-12T01:12:24.715Z,75.90
2023-04-12T01:12:34.104Z,75.80
2023-04-12T01:12:43.494Z,75.90
2023-04-12T01:12:52.916Z,75.90
2023-04-12T01:13:11.698Z,75.90
2023-04-12T01:13:21.084Z,75.90
2023-04-12T01:13:30.488Z,75.90
2023-04-12T01:13:39.879Z,75.90
2023-04-12T01:13:49.279Z,76.00
2023-04-12T01:13:58.838Z,75.90
2023-04-12T01:14:17.487Z,76.00
2023-04-12T01:14:26.871Z,76.00
2023-04-12T01:14:36.278Z,76.00
2023-04-12T01:14:45.690Z,76.00
2023-04-12T01:14:55.078Z,76.10
2023-04-12T01:15:04.484Z,76.10
2023-04-12T01:15:23.279Z,76.10
2023-04-12T01:15:32.672Z,76.10
2023-04-12T01:15:42.080Z,76.10
2023-04-12T01:15:51.575Z,76.10
2023-04-12T01:16:01.029Z,76.20
2023-04-12T01:16:10.366Z,76.20
2023-04-12T01:16:29.235Z,76.20
2023-04-12T01:16:38.575Z,76.20
2023-04-12T01:16:48.029Z,76.20
2023-04-12T01:16:57.496Z,76.20
2023-04-12T01:17:06.884Z,76.20
2023-04-12T01:17:16.291Z,76.20
2023-04-12T01:17:35.094Z,76.20
2023-04-12T01:17:44.482Z,76.20
2023-04-12T01:17:53.889Z,76.20
2023-04-12T01:18:03.357Z,76.20
2023-04-12T01:18:12.709Z,76.20
2023-04-12T01:18:22.154Z,76.20
2023-04-12T01:18:40.948Z,76.20
2023-04-12T01:18:50.375Z,76.20
2023-04-12T01:18:59.774Z,76.10
2023-04-12T01:19:09.168Z,76.10
2023-04-12T01:19:18.593Z,76.10
2023-04-12T01:19:28.001Z,76.10
2023-04-12T01:19:46.800Z,76.10
2023-04-12T01:19:56.211Z,76.20
2023-04-12T01:20:06.309Z,76.30
2023-04-12T01:20:15.022Z,76.30
2023-04-12T01:20:24.427Z,76.40
2023-04-12T01:20:33.858Z,76.40
2023-04-12T01:20:52.664Z,76.60
2023-04-12T01:21:02.087Z,76.70
2023-04-12T01:21:11.585Z,76.80
2023-04-12T01:21:20.986Z,76.90
2023-04-12T01:21:30.380Z,77.00
2023-04-12T01:21:39.794Z,77.20
2023-04-12T01:21:58.628Z,77.30
2023-04-12T01:22:08.041Z,77.50
2023-04-12T01:22:17.447Z,77.60
2023-04-12T01:22:26.850Z,77.80
2023-04-12T01:22:36.255Z,77.90
2023-04-12T01:22:45.656Z,78.10
2023-04-12T01:23:04.469Z,78.30
2023-04-12T01:23:13.897Z,78.50
2023-04-12T01:23:23.291Z,78.60
2023-04-12T01:23:32.688Z,78.70
2023-04-12T01:23:42.104Z,78.90
2023-04-12T01:23:51.540Z,79.00
2023-04-12T01:24:10.375Z,79.30
2023-04-12T01:24:19.769Z,79.50
2023-04-12T01:24:29.201Z,79.50
2023-04-12T01:24:38.613Z,79.70
2023-04-12T01:24:48.024Z,79.90
2023-04-12T01:24:57.421Z,80.10
2023-04-12T01:25:16.239Z,80.40
2023-04-12T01:25:25.638Z,80.60
2023-04-12T01:25:35.032Z,80.70
2023-04-12T01:25:44.450Z,80.80
2023-04-12T01:25:53.883Z,80.90
2023-04-12T01:26:03.269Z,81.10
2023-04-12T01:26:22.118Z,81.30
2023-04-12T01:26:31.546Z,81.50
2023-04-12T01:26:40.874Z,81.60
2023-04-12T01:26:50.282Z,81.70
2023-04-12T01:26:59.695Z,81.90
2023-04-12T01:27:09.107Z,82.00
2023-04-12T01:27:27.936Z,82.30
2023-04-12T01:27:37.321Z,82.40
2023-04-12T01:27:46.734Z,82.50
2023-04-12T01:27:56.167Z,82.70
2023-04-12T01:28:05.582Z,82.80
2023-04-12T01:28:14.976Z,83.00
2023-04-12T01:28:33.836Z,83.20
2023-04-12T01:28:43.244Z,83.30
2023-04-12T01:28:52.647Z,83.50
2023-04-12T01:29:02.060Z,83.60
2023-04-12T01:29:11.488Z,83.80
2023-04-12T01:29:20.878Z,83.90
2023-04-12T01:29:39.659Z,84.20
2023-04-12T01:29:49.062Z,84.40
2023-04-12T01:29:58.491Z,84.50
2023-04-12T01:30:07.900Z,84.70
2023-04-12T01:30:17.297Z,84.80
2023-04-12T01:30:26.700Z,84.90
2023-04-12T01:30:45.520Z,85.00
2023-04-12T01:30:54.923Z,85.10
2023-04-12T01:31:04.334Z,85.10
2023-04-12T01:31:13.747Z,85.10
2023-04-12T01:31:23.142Z,85.10
2023-04-12T01:31:32.608Z,85.10
2023-04-12T01:31:51.318Z,85.10
2023-04-12T01:32:00.805Z,85.00
2023-04-12T01:32:10.093Z,85.20
2023-04-12T01:32:19.512Z,85.10
2023-04-12T01:32:28.941Z,85.10
2023-04-12T01:32:38.312Z,85.00
2023-04-12T01:32:57.135Z,84.90
2023-04-12T01:33:06.601Z,84.80
2023-04-12T01:33:15.941Z,84.70
2023-04-12T01:33:25.332Z,84.70
2023-04-12T01:33:34.740Z,84.60
2023-04-12T01:33:44.158Z,84.50
2023-04-12T01:34:02.959Z,84.30
2023-04-12T01:34:12.357Z,84.30
2023-04-12T01:34:21.758Z,84.10
2023-04-12T01:34:31.133Z,84.10
2023-04-12T01:34:40.515Z,84.00
2023-04-12T01:34:49.912Z,83.90
2023-04-12T01:35:08.722Z,83.80
2023-04-12T01:35:18.113Z,83.60
2023-04-12T01:35:27.516Z,83.60
2023-04-12T01:35:36.973Z,83.60
2023-04-12T01:35:46.299Z,83.50
2023-04-12T01:35:55.762Z,83.40
2023-04-12T01:36:14.527Z,83.20
2023-04-12T01:36:23.922Z,83.20
2023-04-12T01:36:33.288Z,83.10
2023-04-12T01:36:42.678Z,82.90
2023-04-12T01:36:52.082Z,82.80
2023-04-12T01:37:01.563Z,82.70
2023-04-12T01:37:20.305Z,82.60
2023-04-12T01:37:29.705Z,82.50
2023-04-12T01:37:39.084Z,82.40
2023-04-12T01:37:48.534Z,82.30
2023-04-12T01:37:57.905Z,82.20
2023-04-12T01:38:07.301Z,82.20
2023-04-12T01:38:26.090Z,81.90
2023-04-12T01:38:35.508Z,81.90
2023-04-12T01:38:44.876Z,81.80
2023-04-12T01:38:54.287Z,81.80
2023-04-12T01:39:03.680Z,81.70
2023-04-12T01:39:13.080Z,81.60
2023-04-12T01:39:31.871Z,81.40
2023-04-12T01:39:41.295Z,81.40
2023-04-12T01:39:50.693Z,81.40
2023-04-12T01:40:00.157Z,81.30
2023-04-12T01:40:09.518Z,81.30
2023-04-12T01:40:18.922Z,81.20
2023-04-12T01:40:37.732Z,81.20
2023-04-12T01:40:47.147Z,81.20
2023-04-12T01:40:56.541Z,81.20
2023-04-12T01:41:05.940Z,81.30
2023-04-12T01:41:15.341Z,81.20
2023-04-12T01:41:24.749Z,81.30
2023-04-12T01:41:43.559Z,81.20
2023-04-12T01:41:52.959Z,81.10
2023-04-12T01:42:02.381Z,81.10
2023-04-12T01:42:11.764Z,81.10
2023-04-12T01:42:21.162Z,81.10
2023-04-12T01:42:30.566Z,81.00
2023-04-12T01:42:49.375Z,81.00
2023-04-12T01:42:58.773Z,80.90
2023-04-12T01:43:08.202Z,80.90
2023-04-12T01:43:17.614Z,80.90
2023-04-12T01:43:27.038Z,80.80
2023-04-12T01:43:36.451Z,80.80
2023-04-12T01:43:55.767Z,80.70
2023-04-12T01:44:04.654Z,80.70
2023-04-12T01:44:14.081Z,80.60
2023-04-12T01:44:23.480Z,80.60
2023-04-12T01:44:32.876Z,80.50
2023-04-12T01:44:42.256Z,80.50
2023-04-12T01:45:01.038Z,80.50
2023-04-12T01:45:10.425Z,80.40
2023-04-12T01:45:19.828Z,80.40
2023-04-12T01:45:29.311Z,80.40
2023-04-12T01:45:38.652Z,80.40
2023-04-12T01:45:48.122Z,80.40
2023-04-12T01:46:06.793Z,80.40
2023-04-12T01:46:16.258Z,80.30
2023-04-12T01:46:25.569Z,80.30
2023-04-12T01:46:34.952Z,80.20
2023-04-12T01:46:44.360Z,80.20
2023-04-12T01:46:53.789Z,80.20
2023-04-12T01:47:12.597Z,80.10
2023-04-12T01:47:21.980Z,80.10
2023-04-12T01:47:31.452Z,80.10
2023-04-12T01:47:40.929Z,80.00
2023-04-12T01:47:50.242Z,80.00
2023-04-12T01:47:59.749Z,80.00
2023-04-12T01:48:18.496Z,79.90
2023-04-12T01:48:27.931Z,80.00
2023-04-12T01:48:37.315Z,80.00
2023-04-12T01:48:46.737Z,80.00
2023-04-12T01:48:56.115Z,80.00
2023-04-12T01:49:05.505Z,80.10
2023-04-12T01:49:24.330Z,80.10
2023-04-12T01:49:33.716Z,80.10
2023-04-12T01:49:43.121Z,80.20
2023-04-12T01:49:52.493Z,80.10
2023-04-12T01:50:01.888Z,80.20
2023-04-12T01:50:11.297Z,80.10
2023-04-12T01:50:30.089Z,80.10
2023-04-12T01:50:39.479Z,80.10
2023-04-12T01:50:48.873Z,80.00
2023-04-12T01:50:58.289Z,80.00
2023-04-12T01:51:07.669Z,80.00
2023-04-12T01:51:17.077Z,80.00
2023-04-12T01:51:35.909Z,79.90
2023-04-12T01:51:45.325Z,80.00
2023-04-12T01:51:54.746Z,80.00
2023-04-12T01:52:04.165Z,79.90
2023-04-12T01:52:13.629Z,79.80
2023-04-12T01:52:22.952Z,79.90
2023-04-12T01:52:41.706Z,79.80
2023-04-12T01:52:51.102Z,79.80
2023-04-12T01:53:00.529Z,79.80
2023-04-12T01:53:09.952Z,79.80
2023-04-12T01:53:19.338Z,79.80
2023-04-12T01:53:28.735Z,79.80
2023-04-12T01:53:47.545Z,79.90
2023-04-12T01:53:57.182Z,80.00
2023-04-12T01:54:06.352Z,80.00
2023-04-12T01:54:15.737Z,80.00
2023-04-12T01:54:25.144Z,80.10
2023-04-12T01:54:34.543Z,80.10
2023-04-12T01:54:53.358Z,80.10
2023-04-12T01:55:02.755Z,80.10
2023-04-12T01:55:12.163Z,80.20
2023-04-12T01:55:21.695Z,80.20
2023-04-12T01:55:31.109Z,80.20
2023-04-12T01:55:40.531Z,80.20
2023-04-12T01:55:59.330Z,80.30
2023-04-12T01:56:08.745Z,80.30
2023-04-12T01:56:18.174Z,80.30
2023-04-12T01:56:27.530Z,80.30
2023-04-12T01:56:38.418Z,80.40
2023-04-12T01:56:46.383Z,80.40
2023-04-12T01:57:05.200Z,80.40
2023-04-12T01:57:14.693Z,80.30
2023-04-12T01:57:24.102Z,80.40
2023-04-12T01:57:33.509Z,80.50
2023-04-12T01:57:42.909Z,80.50
2023-04-12T01:57:52.315Z,80.40
2023-04-12T01:58:11.179Z,80.40
2023-04-12T01:58:20.582Z,80.40
2023-04-12T01:58:29.977Z,80.40
2023-04-12T01:58:39.363Z,80.30
2023-04-12T01:58:48.745Z,80.30
2023-04-12T01:58:58.136Z,80.30
2023-04-12T01:59:16.950Z,80.20
2023-04-12T01:59:26.326Z,80.30
2023-04-12T01:59:35.712Z,80.20
2023-04-12T01:59:45.115Z,80.20
2023-04-12T01:59:54.511Z,80.30
2023-04-12T02:00:03.906Z,80.20
2023-04-12T02:00:22.696Z,80.20
2023-04-12T02:00:32.097Z,80.20
2023-04-12T02:00:41.549Z,80.20
2023-04-12T02:00:50.967Z,80.20
2023-04-12T02:01:00.388Z,80.20
2023-04-12T02:01:09.831Z,80.20
2023-04-12T02:01:28.608Z,80.20
2023-04-12T02:01:38.054Z,80.20
2023-04-12T02:01:47.468Z,80.20
2023-04-12T02:01:56.792Z,80.20
2023-04-12T02:02:06.158Z,80.20
2023-04-12T02:02:15.531Z,80.10
2023-04-12T02:02:34.401Z,80.10
2023-04-12T02:02:43.875Z,80.10
2023-04-12T02:02:53.284Z,80.10
2023-04-12T02:03:02.666Z,80.20
2023-04-12T02:03:12.021Z,80.20
2023-04-12T02:03:21.425Z,80.20
2023-04-12T02:03:40.234Z,80.20
2023-04-12T02:03:49.827Z,80.20
2023-04-12T02:03:59.214Z,80.20
2023-04-12T02:04:08.302Z,80.20
2023-04-12T02:04:17.684Z,80.20
2023-04-12T02:04:27.063Z,80.10
2023-04-12T02:04:45.910Z,80.10
2023-04-12T02:04:55.264Z,80.20
2023-04-12T02:05:04.817Z,80.20
2023-04-12T02:05:14.089Z,80.30
2023-04-12T02:05:23.498Z,80.20
2023-04-12T02:05:32.878Z,80.20
2023-04-12T02:05:51.662Z,80.20
2023-04-12T02:06:01.043Z,80.20
2023-04-12T02:06:10.407Z,80.20
2023-04-12T02:06:19.845Z,80.20
2023-04-12T02:06:29.259Z,80.10
2023-04-12T02:06:38.646Z,80.10
2023-04-12T02:06:57.437Z,80.10
2023-04-12T02:07:06.828Z,80.10
2023-04-12T02:07:16.232Z,80.10
2023-04-12T02:07:25.615Z,80.00
2023-04-12T02:07:35.017Z,80.00
2023-04-12T02:07:44.414Z,79.90
2023-04-12T02:08:03.525Z,79.80
2023-04-12T02:08:12.936Z,79.70
2023-04-12T02:08:22.338Z,79.60
2023-04-12T02:08:31.733Z,79.50
2023-04-12T02:08:41.120Z,79.50
2023-04-12T02:08:50.488Z,79.50
2023-04-12T02:09:09.283Z,79.50
2023-04-12T02:09:18.699Z,79.40
2023-04-12T02:09:28.079Z,79.40
2023-04-12T02:09:37.491Z,79.40
2023-04-12T02:09:46.907Z,79.30
2023-04-12T02:09:56.350Z,79.30
2023-04-12T02:10:15.176Z,79.30
2023-04-12T02:10:24.576Z,79.20
2023-04-12T02:10:33.969Z,79.20
2023-04-12T02:10:43.363Z,79.30
2023-04-12T02:10:52.737Z,79.30
2023-04-12T02:11:02.139Z,79.30
2023-04-12T02:11:20.969Z,79.30
2023-04-12T02:11:30.381Z,79.30
2023-04-12T02:11:39.788Z,79.30
2023-04-12T02:11:49.177Z,79.30
2023-04-12T02:11:58.560Z,79.30
2023-04-12T02:12:07.995Z,79.30
2023-04-12T02:12:26.815Z,79.40
2023-04-12T02:12:36.204Z,79.40
2023-04-12T02:12:45.609Z,79.40
2023-04-12T02:12:54.996Z,79.40
2023-04-12T02:13:04.467Z,79.50
2023-04-12T02:13:13.791Z,79.50
2023-04-12T02:13:32.567Z,79.50
2023-04-12T02:13:41.975Z,79.50
2023-04-12T02:13:51.391Z,79.50
2023-04-12T02:14:00.826Z,79.60
2023-04-12T02:14:10.208Z,79.60
2023-04-12T02:14:19.652Z,79.60
2023-04-12T02:14:38.442Z,79.60
2023-04-12T02:14:47.906Z,79.60
2023-04-12T02:14:57.297Z,79.60
2023-04-12T02:15:06.684Z,79.50
2023-04-12T02:15:16.111Z,79.60
2023-04-12T02:15:25.470Z,79.60
2023-04-12T02:15:44.267Z,79.50
2023-04-12T02:15:53.673Z,79.50
2023-04-12T02:16:03.084Z,79.50
2023-04-12T02:16:12.514Z,79.50
2023-04-12T02:16:21.949Z,79.50
2023-04-12T02:16:31.373Z,79.40
2023-04-12T02:16:50.166Z,79.30
2023-04-12T02:16:59.626Z,79.40
2023-04-12T02:17:08.946Z,79.40
2023-04-12T02:17:18.344Z,79.40
2023-04-12T02:17:27.808Z,79.40
2023-04-12T02:17:37.185Z,79.40
2023-04-12T02:17:56.009Z,79.40
2023-04-12T02:18:05.402Z,79.40
2023-04-12T02:18:14.774Z,79.40
2023-04-12T02:18:24.177Z,79.40
2023-04-12T02:18:33.559Z,79.40
2023-04-12T02:18:42.968Z,79.50
2023-04-12T02:19:01.795Z,79.50
2023-04-12T02:19:11.209Z,79.50
2023-04-12T02:19:20.605Z,79.50
2023-04-12T02:19:30.028Z,79.40
2023-04-12T02:19:39.430Z,79.40
2023-04-12T02:19:48.825Z,79.40
2023-04-12T02:20:07.575Z,79.30
2023-04-12T02:20:17.049Z,79.30
2023-04-12T02:20:26.448Z,79.30
2023-04-12T02:20:35.840Z,79.20
2023-04-12T02:20:45.220Z,79.10
2023-04-12T02:20:54.661Z,79.10
2023-04-12T02:21:13.477Z,79.10
2023-04-12T02:21:22.884Z,79.00